createdAt,value
2023-04-03T00:04:31.343Z,2.50
2023-04-03T00:09:34.589Z,2.50
2023-04-03T00:14:37.881Z,2.50
2023-04-03T00:19:42.817Z,2.50
2023-04-03T00:24:46.550Z,2.50
2023-04-03T00:29:50.062Z,2.60
2023-04-03T00:34:54.668Z,2.50
2023-04-03T00:39:57.973Z,2.40
2023-04-03T00:45:41.503Z,2.30
2023-04-03T00:50:47.395Z,2.10
2023-04-03T00:55:53.133Z,1.90
2023-04-03T01:00:58.774Z,1.80
2023-04-03T01:06:03.961Z,1.70
2023-04-03T01:11:07.336Z,1.60
2023-04-03T01:16:11.424Z,1.50
2023-04-03T01:21:56.725Z,1.50
2023-04-03T01:27:00.519Z,1.40
2023-04-03T01:32:06.522Z,1.20
2023-04-03T01:37:09.979Z,1.10
2023-04-03T01:42:13.410Z,1.10
2023-04-03T01:47:21.696Z,1.00
2023-04-03T01:52:25.157Z,1.10
2023-04-03T01:57:28.542Z,1.00
2023-04-03T02:02:33.569Z,0.90
2023-04-03T02:07:37.007Z,1.00
2023-04-03T02:12:40.339Z,1.10
2023-04-03T02:17:45.409Z,1.10
2023-04-03T02:22:50.641Z,1.10
2023-04-03T02:27:55.221Z,1.00
2023-04-03T02:32:59.916Z,1.00
2023-04-03T02:38:03.709Z,0.90
2023-04-03T02:43:07.091Z,0.90
2023-04-03T02:48:13.051Z,0.80
2023-04-03T02:53:16.452Z,0.60
2023-04-03T02:58:20.490Z,0.50
2023-04-03T03:03:25.658Z,0.30
2023-04-03T03:08:29.400Z,0.10
2023-04-03T03:13:33.984Z,0.00
2023-04-03T03:18:39.342Z,0.00
2023-04-03T03:23:42.800Z,-0.10
2023-04-03T03:28:46.575Z,-0.20
2023-04-03T03:33:51.653Z,-0.30
2023-04-03T03:38:55.968Z,-0.30
2023-04-03T03:43:59.281Z,-0.40
2023-04-03T03:49:05.900Z,-0.50
2023-04-03T03:54:09.955Z,-0.50
2023-04-03T03:59:14.561Z,-0.60
2023-04-03T04:04:20.118Z,-0.70
2023-04-03T04:09:23.721Z,-0.70
2023-04-03T04:14:27.539Z,-0.80
2023-04-03T04:19:32.739Z,-0.90
2023-04-03T04:24:37.891Z,-0.90
2023-04-03T04:29:41.698Z,-0.90
2023-04-03T04:34:46.957Z,-0.90
2023-04-03T04:39:50.465Z,-0.90
2023-04-03T04:44:53.805Z,-0.90
2023-04-03T04:49:58.618Z,-0.90
2023-04-03T04:55:02.418Z,-0.90
2023-04-03T05:00:07.584Z,-0.90
2023-04-03T05:05:12.769Z,-0.80
2023-04-03T05:10:16.753Z,-0.70
2023-04-03T05:15:22.387Z,-0.70
2023-04-03T05:20:27.542Z,-0.50
2023-04-03T05:25:31.798Z,-0.50
2023-04-03T05:30:35.998Z,-0.50
2023-04-03T05:35:42.499Z,-0.40
2023-04-03T05:40:49.188Z,-0.30
2023-04-03T05:45:53.978Z,-0.20
2023-04-03T05:51:01.139Z,-0.10
2023-04-03T05:56:04.518Z,0.00
2023-04-03T06:01:12.731Z,0.10
2023-04-03T06:06:18.488Z,0.30
2023-04-03T06:11:22.600Z,0.40
2023-04-03T06:16:26.262Z,0.50
2023-04-03T06:21:31.594Z,0.70
2023-04-03T06:26:34.919Z,0.80
2023-04-03T06:31:38.566Z,0.90
2023-04-03T06:36:43.657Z,1.10
2023-04-03T06:41:46.913Z,1.20
2023-04-03T06:46:50.565Z,1.30
2023-04-03T06:51:55.752Z,1.50
2023-04-03T06:56:59.066Z,1.50
2023-04-03T07:02:02.422Z,1.70
2023-04-03T07:07:07.109Z,1.90
2023-04-03T07:12:10.322Z,2.00
2023-04-03T07:17:13.554Z,2.20
2023-04-03T07:22:18.152Z,2.30
2023-04-03T07:27:21.415Z,2.40
2023-04-03T07:32:24.586Z,2.60
2023-04-03T07:37:29.271Z,2.70
2023-04-03T07:42:32.611Z,2.90
2023-04-03T07:47:36.189Z,3.10
2023-04-03T07:52:40.749Z,3.20
2023-04-03T07:57:44.566Z,3.30
2023-04-03T08:02:51.440Z,3.50
2023-04-03T08:07:56.449Z,3.70
2023-04-03T08:13:00.120Z,4.00
2023-04-03T08:18:05.022Z,4.30
2023-04-03T08:23:10.545Z,4.60
2023-04-03T08:28:14.687Z,5.30
2023-04-03T08:33:18.198Z,5.40
2023-04-03T08:38:23.098Z,5.20
2023-04-03T08:43:38.788Z,5.40
2023-04-03T08:48:44.691Z,6.10
2023-04-03T08:53:57.320Z,6.90
2023-04-03T08:59:06.188Z,6.60
2023-04-03T09:04:14.228Z,5.70
2023-04-03T09:09:32.864Z,5.20
2023-04-03T09:14:40.468Z,4.60
2023-04-03T09:19:53.938Z,4.50
2023-04-03T09:25:03.670Z,4.70
2023-04-03T09:30:10.162Z,5.30
2023-04-03T09:35:27.412Z,5.90
2023-04-03T09:40:43.333Z,6.30
2023-04-03T09:45:48.636Z,6.10
2023-04-03T09:51:04.531Z,5.90
2023-04-03T09:56:23.304Z,6.00
2023-04-03T10:01:30.719Z,6.50
2023-04-03T10:06:36.858Z,6.60
2023-04-03T10:12:02.633Z,6.20
2023-04-03T10:17:21.063Z,6.40
2023-04-03T10:22:31.270Z,6.70
2023-04-03T10:27:55.739Z,6.90
2023-04-03T10:33:20.456Z,6.80
2023-04-03T10:38:32.254Z,6.80
2023-04-03T10:43:45.716Z,7.10
2023-04-03T10:49:01.232Z,7.10
2023-04-03T10:54:13.934Z,7.30
2023-04-03T10:59:30.316Z,7.50
2023-04-03T11:04:38.521Z,7.70
2023-04-03T11:09:45.154Z,8.50
2023-04-03T11:14:52.700Z,8.70
2023-04-03T11:20:08.102Z,8.00
2023-04-03T11:25:23.290Z,7.70
2023-04-03T11:30:32.780Z,7.20
2023-04-03T11:35:37.399Z,7.30
2023-04-03T11:40:42.137Z,7.50
2023-04-03T11:45:57.295Z,8.10
2023-04-03T11:51:01.957Z,8.00
2023-04-03T11:56:33.332Z,7.50
2023-04-03T12:01:49.301Z,7.30
2023-04-03T12:07:05.284Z,8.30
2023-04-03T12:12:30.524Z,8.60
2023-04-03T12:17:36.333Z,7.70
2023-04-03T12:22:39.946Z,7.80
2023-04-03T12:27:44.918Z,8.40
2023-04-03T12:33:13.716Z,8.20
2023-04-03T12:38:54.279Z,8.00
2023-04-03T12:44:11.804Z,8.10
2023-04-03T12:49:29.008Z,8.10
2023-04-03T12:54:37.544Z,7.90
2023-04-03T12:59:42.143Z,7.70
2023-04-03T13:04:48.038Z,7.60
2023-04-03T13:10:00.445Z,7.80
2023-04-03T13:15:17.216Z,7.90
2023-04-03T13:20:26.466Z,7.90
2023-04-03T13:25:33.905Z,7.90
2023-04-03T13:30:40.378Z,7.80
2023-04-03T13:35:46.048Z,7.70
2023-04-03T13:40:51.501Z,7.90
2023-04-03T13:46:07.413Z,7.90
2023-04-03T13:51:23.776Z,7.60
2023-04-03T13:56:33.027Z,7.60
2023-04-03T14:01:44.060Z,8.00
2023-04-03T14:06:49.838Z,7.90
2023-04-03T14:11:56.734Z,7.50
2023-04-03T14:17:02.303Z,7.10
2023-04-03T14:22:16.239Z,7.10
2023-04-03T14:27:22.947Z,6.80
2023-04-03T14:32:27.652Z,6.70
2023-04-03T14:37:33.738Z,6.70
2023-04-03T14:42:39.372Z,6.60
2023-04-03T14:47:45.249Z,6.70
2023-04-03T14:52:51.724Z,6.60
2023-04-03T14:57:55.944Z,6.80
2023-04-03T15:02:59.673Z,6.70
2023-04-03T15:08:04.580Z,6.90
2023-04-03T15:13:08.325Z,7.00
2023-04-03T15:18:17.799Z,6.70
2023-04-03T15:23:27.100Z,6.50
2023-04-03T15:28:33.565Z,6.30
2023-04-03T15:33:38.211Z,6.50
2023-04-03T15:38:43.359Z,6.50
2023-04-03T15:43:47.123Z,6.30
2023-04-03T15:48:51.037Z,6.10
2023-04-03T15:53:56.222Z,6.00
2023-04-03T15:58:59.800Z,5.90
2023-04-03T16:04:03.803Z,5.80
2023-04-03T16:09:09.481Z,5.80
2023-04-03T16:14:13.289Z,5.70
2023-04-03T16:19:17.012Z,5.80
2023-04-03T16:24:22.211Z,5.80
2023-04-03T16:29:25.798Z,5.70
2023-04-03T16:34:31.424Z,5.50
2023-04-03T16:39:36.947Z,5.50
2023-04-03T16:44:41.341Z,5.40
2023-04-03T16:49:45.600Z,5.30
2023-04-03T16:54:50.435Z,5.20
2023-04-03T16:59:54.417Z,5.10
2023-04-03T17:04:57.968Z,5.00
2023-04-03T17:10:02.567Z,5.10
2023-04-03T17:15:06.963Z,5.00
2023-04-03T17:20:11.910Z,4.90
2023-04-03T17:25:17.289Z,4.90
2023-04-03T17:30:21.084Z,4.90
2023-04-03T17:35:24.949Z,4.80
2023-04-03T17:40:29.895Z,4.80
2023-04-03T17:45:33.873Z,4.70
2023-04-03T17:50:39.276Z,4.70
2023-04-03T17:55:43.967Z,4.60
2023-04-03T18:00:47.482Z,4.60
2023-04-03T18:05:54.973Z,4.60
2023-04-03T18:11:00.650Z,4.60
2023-04-03T18:16:04.668Z,4.50
2023-04-03T18:21:11.257Z,4.50
2023-04-03T18:26:19.825Z,4.50
2023-04-03T18:31:25.839Z,4.40
2023-04-03T18:36:30.267Z,4.30
2023-04-03T18:41:38.232Z,4.40
2023-04-03T18:46:41.899Z,4.40
2023-04-03T18:51:45.730Z,4.30
2023-04-03T18:56:50.605Z,4.30
2023-04-03T19:01:53.923Z,4.30
2023-04-03T19:06:57.715Z,4.40
2023-04-03T19:12:03.094Z,4.40
2023-04-03T19:17:08.156Z,4.40
2023-04-03T19:22:11.733Z,4.40
2023-04-03T19:27:17.116Z,4.30
2023-04-03T19:32:20.836Z,4.10
2023-04-03T19:37:25.398Z,4.10
2023-04-03T19:42:31.901Z,4.10
2023-04-03T19:47:38.568Z,4.10
2023-04-03T19:52:42.907Z,4.00
2023-04-03T19:57:48.000Z,4.10
2023-04-03T20:02:51.793Z,4.00
2023-04-03T20:07:56.444Z,4.00
2023-04-03T20:13:01.849Z,4.00
2023-04-03T20:18:05.784Z,4.00
2023-04-03T20:23:11.384Z,4.00
2023-04-03T20:28:17.127Z,4.00
2023-04-03T20:33:21.671Z,4.00
2023-04-03T20:38:25.355Z,3.90
2023-04-03T20:43:30.199Z,3.80
2023-04-03T20:48:33.757Z,3.80
2023-04-03T20:53:37.930Z,3.80
2023-04-03T20:58:43.869Z,3.80
2023-04-03T21:03:47.940Z,3.80
2023-04-03T21:09:29.274Z,3.80
2023-04-03T21:15:10.297Z,3.80
2023-04-03T21:20:15.012Z,3.80
2023-04-03T21:25:18.620Z,3.80
2023-04-03T21:30:22.521Z,3.80
2023-04-03T21:35:27.306Z,3.80
2023-04-03T21:40:32.134Z,3.80
2023-04-03T21:45:35.685Z,3.70
2023-04-03T21:50:40.540Z,3.70
2023-04-03T21:55:44.331Z,3.70
2023-04-03T22:00:48.103Z,3.60
2023-04-03T22:05:53.869Z,3.60
2023-04-03T22:11:02.887Z,3.50
2023-04-03T22:16:07.042Z,3.40
2023-04-03T22:21:12.188Z,3.40
2023-04-03T22:26:15.997Z,3.40
2023-04-03T22:31:21.126Z,3.30
2023-04-03T22:36:26.456Z,3.30
2023-04-03T22:41:30.057Z,3.30
2023-04-03T22:46:33.595Z,3.40
2023-04-03T22:51:38.542Z,3.40
2023-04-03T22:56:42.176Z,3.40
2023-04-03T23:01:46.010Z,3.40
2023-04-03T23:06:50.824Z,3.40
2023-04-03T23:11:54.142Z,3.40
2023-04-03T23:16:57.884Z,3.40
2023-04-03T23:22:03.316Z,3.30
2023-04-03T23:27:07.011Z,3.30
2023-04-03T23:32:11.122Z,3.30
2023-04-03T23:37:16.237Z,3.30
2023-04-03T23:42:19.541Z,3.30
2023-04-03T23:47:23.309Z,3.20
2023-04-03T23:52:28.942Z,3.10
2023-04-03T23:57:32.525Z,3.20
